VVPB/HUI METAR and TAF weather

Enter ICAO airport designator
Station Type Date Time Source
VVPB METAR 2021/08/04 18:30 UTC NOAA

VVPB 041830Z 25005KT 9999 FEW015 32/21 Q1001 NOSIG


Station Type Date Time Source
VVPB Decoded METAR 2021/08/04 18:30 UTC NOAA

Hue, Vietnam (VVPB) 16-24N 107-41E 17M
Aug 04, 2021 - 02:30 PM EDT / 2021.08.04 1830 UTC
Wind: from the WSW (250 degrees) at 6 MPH (5 KT):0
Visibility: greater than 7 mile(s):0
Sky conditions: mostly clear
Temperature: 89 F (32 C)
Dew Point: 69 F (21 C)
Relative Humidity: 52%
Pressure (altimeter): 29.56 in. Hg (1001 hPa)
ob: VVPB 041830Z 25005KT 9999 FEW015 32/21 Q1001 NOSIG
cycle: 18

Station Type Date Time Source
VVPB TAF 2021/08/03 18:00 UTC NOAA

TAF VVPB 031700Z 0318/0418 32003KT 9999 FEW017 SCT060
BECMG 0400/0401 25011KT
TEMPO 0402/0407 25015G25KT
BECMG 0412/0413 31004KT

Example: see airport list